createdAt,value
2019-03-06T00:01:02.637Z,1.50
2019-03-06T00:03:35.223Z,1.40
2019-03-06T00:06:06.253Z,1.63
2019-03-06T00:08:36.935Z,1.37
2019-03-06T00:11:07.319Z,1.63
2019-03-06T00:13:37.592Z,1.67
2019-03-06T00:16:08.009Z,1.80
2019-03-06T00:18:38.387Z,1.00
2019-03-06T00:21:09.323Z,1.40
2019-03-06T00:23:39.821Z,1.30
2019-03-06T00:26:10.344Z,1.63
2019-03-06T00:28:40.685Z,1.73
2019-03-06T00:31:11.999Z,1.37
2019-03-06T00:33:42.356Z,1.70
2019-03-06T00:36:19.455Z,1.50
2019-03-06T00:38:49.437Z,1.57
2019-03-06T00:41:25.260Z,1.37
2019-03-06T00:43:55.673Z,1.20
2019-03-06T00:46:28.383Z,1.53
2019-03-06T00:48:58.710Z,1.10
2019-03-06T00:51:30.411Z,1.40
2019-03-06T00:54:00.715Z,1.30
2019-03-06T00:56:31.200Z,1.40
2019-03-06T00:59:01.548Z,1.27
2019-03-06T01:01:32.008Z,1.43
2019-03-06T01:04:02.280Z,1.37
2019-03-06T01:06:33.293Z,0.97
2019-03-06T01:09:05.139Z,1.53
2019-03-06T01:11:35.960Z,1.27
2019-03-06T01:14:06.255Z,1.27
2019-03-06T01:16:36.536Z,1.53
2019-03-06T01:19:07.892Z,1.57
2019-03-06T01:21:38.520Z,1.20
2019-03-06T01:24:08.804Z,1.30
2019-03-06T01:26:39.184Z,3.10
2019-03-06T01:29:09.600Z,2.13
2019-03-06T01:31:39.928Z,1.60
2019-03-06T01:34:20.824Z,1.57
2019-03-06T01:37:16.543Z,1.40
2019-03-06T01:40:05.901Z,1.50
2019-03-06T01:42:43.820Z,1.40
2019-03-06T01:45:14.483Z,1.33
2019-03-06T01:47:44.710Z,1.30
2019-03-06T01:50:16.040Z,1.47
2019-03-06T01:52:46.748Z,1.60
2019-03-06T01:55:17.293Z,1.47
2019-03-06T01:57:48.657Z,1.20
2019-03-06T02:00:19.613Z,1.17
2019-03-06T02:02:49.992Z,1.47
2019-03-06T02:05:20.508Z,1.80
2019-03-06T02:07:51.120Z,2.60
2019-03-06T02:10:23.130Z,1.80
2019-03-06T02:12:53.524Z,1.80
2019-03-06T02:15:24.094Z,1.70
2019-03-06T02:17:54.436Z,2.17
2019-03-06T02:20:25.010Z,2.23
2019-03-06T02:22:55.472Z,2.07
2019-03-06T02:25:27.336Z,1.73
2019-03-06T02:27:57.614Z,2.33
2019-03-06T02:30:28.145Z,2.17
2019-03-06T02:32:59.234Z,2.67
2019-03-06T02:35:29.731Z,2.63
2019-03-06T02:38:00.286Z,2.77
2019-03-06T02:40:30.753Z,2.77
2019-03-06T02:43:02.124Z,2.17
2019-03-06T02:45:32.697Z,2.20
2019-03-06T02:48:02.968Z,2.57
2019-03-06T02:50:33.405Z,1.83
2019-03-06T02:53:04.038Z,1.50
2019-03-06T02:55:35.492Z,2.10
2019-03-06T02:58:14.464Z,2.70
2019-03-06T03:01:12.942Z,2.80
2019-03-06T03:04:16.937Z,2.30
2019-03-06T03:06:51.101Z,2.23
2019-03-06T03:09:21.494Z,3.37
2019-03-06T03:11:51.785Z,2.83
2019-03-06T03:14:22.392Z,2.50
2019-03-06T03:16:52.683Z,4.23
2019-03-06T03:19:23.162Z,2.53
2019-03-06T03:21:53.914Z,3.57
2019-03-06T03:24:24.781Z,4.70
2019-03-06T03:26:55.102Z,3.20
2019-03-06T03:29:25.452Z,2.20
2019-03-06T03:31:56.002Z,2.90
2019-03-06T03:34:26.284Z,3.20
2019-03-06T03:36:56.581Z,3.83
2019-03-06T03:39:27.276Z,3.50
2019-03-06T03:41:57.673Z,3.17
2019-03-06T03:44:28.174Z,4.17
2019-03-06T03:46:58.549Z,3.80
2019-03-06T03:49:28.962Z,3.17
2019-03-06T03:51:59.240Z,3.20
2019-03-06T03:54:29.715Z,3.87
2019-03-06T03:57:00.204Z,4.90
2019-03-06T03:59:30.859Z,4.37
2019-03-06T04:02:01.343Z,5.93
2019-03-06T04:04:33.407Z,4.63
2019-03-06T04:07:04.115Z,5.37
2019-03-06T04:09:34.572Z,5.73
2019-03-06T04:12:05.016Z,4.30
2019-03-06T04:14:35.394Z,7.00
2019-03-06T04:17:09.063Z,6.63
2019-03-06T04:19:39.415Z,5.33
2019-03-06T04:22:10.356Z,5.97
2019-03-06T04:24:40.802Z,6.23
2019-03-06T04:27:11.305Z,10.37
2019-03-06T04:29:41.524Z,5.07
2019-03-06T04:32:12.152Z,7.30
2019-03-06T04:34:42.411Z,9.17
2019-03-06T04:37:12.707Z,8.50
2019-03-06T04:39:43.431Z,9.10
2019-03-06T04:42:13.652Z,8.43
2019-03-06T04:44:44.137Z,7.20
2019-03-06T04:47:14.543Z,10.47
2019-03-06T04:49:52.406Z,10.30
2019-03-06T04:52:16.913Z,8.47
2019-03-06T04:54:47.905Z,12.27
2019-03-06T04:57:18.526Z,17.23
2019-03-06T04:59:48.954Z,8.83
2019-03-06T05:02:19.235Z,13.17
2019-03-06T05:04:52.126Z,8.00
2019-03-06T05:07:22.854Z,6.10
2019-03-06T05:09:53.533Z,5.53
2019-03-06T05:12:23.972Z,6.63
2019-03-06T05:14:54.600Z,9.43
2019-03-06T05:17:35.103Z,9.07
2019-03-06T05:20:05.768Z,10.93
2019-03-06T05:22:37.961Z,4.33
2019-03-06T05:25:11.862Z,7.97
2019-03-06T05:27:42.259Z,6.83
2019-03-06T05:30:12.849Z,8.10
2019-03-06T05:32:43.147Z,8.17
2019-03-06T05:35:26.930Z,12.33
2019-03-06T05:38:18.971Z,13.07
2019-03-06T05:40:49.803Z,5.33
2019-03-06T05:43:20.149Z,20.27
2019-03-06T05:45:51.153Z,17.27
2019-03-06T05:48:21.599Z,24.83
2019-03-06T05:50:52.259Z,17.13
2019-03-06T05:53:22.727Z,23.30
2019-03-06T05:55:53.666Z,27.03
2019-03-06T05:58:23.973Z,32.50
2019-03-06T06:00:54.856Z,33.23
2019-03-06T06:03:27.933Z,32.27
2019-03-06T06:05:58.485Z,27.67
2019-03-06T06:08:28.993Z,24.93
2019-03-06T06:10:59.554Z,27.77
2019-03-06T06:13:32.724Z,27.67
2019-03-06T06:16:05.839Z,19.77
2019-03-06T06:18:36.139Z,32.23
2019-03-06T06:21:25.807Z,29.57
2019-03-06T06:23:59.372Z,27.00
2019-03-06T06:26:29.847Z,29.73
2019-03-06T06:29:00.193Z,24.47
2019-03-06T06:31:32.503Z,27.77
2019-03-06T06:34:02.793Z,25.53
2019-03-06T06:36:33.515Z,29.23
2019-03-06T06:39:05.596Z,26.97
2019-03-06T06:41:36.027Z,27.10
2019-03-06T06:44:06.715Z,19.03
2019-03-06T06:46:37.095Z,33.17
2019-03-06T06:49:07.443Z,27.10
2019-03-06T06:52:05.122Z,26.70
2019-03-06T06:55:03.005Z,29.13
2019-03-06T06:58:21.256Z,33.17
2019-03-06T07:01:47.757Z,28.57
2019-03-06T07:04:58.032Z,34.43
2019-03-06T07:07:41.098Z,25.03
2019-03-06T07:10:29.151Z,25.70
2019-03-06T07:13:18.668Z,20.23
2019-03-06T07:16:11.186Z,21.57
2019-03-06T07:19:00.529Z,25.53
2019-03-06T07:21:56.010Z,24.93
2019-03-06T07:24:44.244Z,21.33
2019-03-06T07:27:40.528Z,33.07
2019-03-06T07:30:19.569Z,21.97
2019-03-06T07:33:07.121Z,28.77
2019-03-06T07:36:20.441Z,22.80
2019-03-06T07:38:55.398Z,22.00
2019-03-06T07:41:44.094Z,23.03
2019-03-06T07:44:36.768Z,21.37
2019-03-06T07:47:34.458Z,27.23
2019-03-06T07:50:25.226Z,19.97
2019-03-06T07:53:48.761Z,24.07
2019-03-06T07:56:26.585Z,27.73
2019-03-06T07:58:58.428Z,17.50
2019-03-06T08:01:31.431Z,20.33
2019-03-06T08:04:10.680Z,24.23
2019-03-06T08:06:43.848Z,23.33
2019-03-06T08:09:19.393Z,26.20
2019-03-06T08:12:12.051Z,20.90
2019-03-06T08:15:13.564Z,24.90
2019-03-06T08:18:07.130Z,23.37
2019-03-06T08:21:07.834Z,30.83
2019-03-06T08:23:57.270Z,28.83
2019-03-06T08:26:28.639Z,25.53
2019-03-06T08:28:59.436Z,21.23
2019-03-06T08:31:49.180Z,30.40
2019-03-06T08:34:22.642Z,32.43
2019-03-06T08:36:58.026Z,28.17
2019-03-06T08:39:28.774Z,31.73
2019-03-06T08:41:59.800Z,30.27
2019-03-06T08:44:30.349Z,34.40
2019-03-06T08:47:16.286Z,27.40
2019-03-06T08:50:06.068Z,28.27
2019-03-06T08:52:47.207Z,28.23
2019-03-06T08:55:36.653Z,27.47
2019-03-06T08:58:15.329Z,19.80
2019-03-06T09:01:15.392Z,24.40
2019-03-06T09:03:55.476Z,28.00
2019-03-06T09:06:42.677Z,23.53
2019-03-06T09:09:35.960Z,14.87
2019-03-06T09:12:25.577Z,20.93
2019-03-06T09:15:21.226Z,18.23
2019-03-06T09:18:10.843Z,24.73
2019-03-06T09:21:09.596Z,16.43
2019-03-06T09:24:00.188Z,13.43
2019-03-06T09:26:41.052Z,18.60
2019-03-06T09:29:22.096Z,19.50
2019-03-06T09:32:03.559Z,15.03
2019-03-06T09:34:51.150Z,17.33
2019-03-06T09:37:37.171Z,21.23
2019-03-06T09:40:19.231Z,18.27
2019-03-06T09:43:08.947Z,14.80
2019-03-06T09:46:01.590Z,17.87
2019-03-06T09:48:51.194Z,19.00
2019-03-06T09:51:52.660Z,16.03
2019-03-06T09:54:55.136Z,12.53
2019-03-06T09:57:44.815Z,13.53
2019-03-06T10:00:49.338Z,19.63
2019-03-06T10:03:39.883Z,18.60
2019-03-06T10:06:19.882Z,15.50
2019-03-06T10:09:07.517Z,12.10
2019-03-06T10:11:57.144Z,12.10
2019-03-06T10:14:46.716Z,13.17
2019-03-06T10:17:39.988Z,15.43
2019-03-06T10:20:14.024Z,14.87
2019-03-06T10:22:45.358Z,15.43
2019-03-06T10:25:16.862Z,13.77
2019-03-06T10:27:47.846Z,16.63
2019-03-06T10:30:19.139Z,16.13
2019-03-06T10:32:50.110Z,11.60
2019-03-06T10:35:20.842Z,18.73
2019-03-06T10:37:52.310Z,18.37
2019-03-06T10:40:23.148Z,11.87
2019-03-06T10:42:54.058Z,16.73
2019-03-06T10:45:24.833Z,15.47
2019-03-06T10:47:55.634Z,20.53
2019-03-06T10:50:29.530Z,16.70
2019-03-06T10:53:02.613Z,12.10
2019-03-06T10:55:34.802Z,13.23
2019-03-06T10:58:06.449Z,18.60
2019-03-06T11:00:41.008Z,17.97
2019-03-06T11:03:11.730Z,11.50
2019-03-06T11:05:47.380Z,16.27
2019-03-06T11:08:19.162Z,14.70
2019-03-06T11:10:49.839Z,13.50
2019-03-06T11:13:20.564Z,18.67
2019-03-06T11:18:26.860Z,17.90
2019-03-06T11:18:55.892Z,17.33
2019-03-06T11:20:57.504Z,17.87
2019-03-06T11:23:28.285Z,18.13
2019-03-06T11:25:59.014Z,21.20
2019-03-06T11:28:29.773Z,20.20
2019-03-06T11:31:01.713Z,17.20
2019-03-06T11:33:32.385Z,16.53
2019-03-06T11:36:03.028Z,20.93
2019-03-06T11:38:33.774Z,22.40
2019-03-06T11:41:07.376Z,16.63
2019-03-06T11:43:38.269Z,25.10
2019-03-06T11:46:09.670Z,20.20
2019-03-06T11:48:40.272Z,21.43
2019-03-06T11:51:10.806Z,21.57
2019-03-06T11:53:41.557Z,22.83
2019-03-06T11:56:13.809Z,19.20
2019-03-06T11:58:45.011Z,18.67
2019-03-06T12:01:18.857Z,14.90
2019-03-06T12:03:50.485Z,23.40
2019-03-06T12:06:21.265Z,21.23
2019-03-06T12:08:56.087Z,22.73
2019-03-06T12:11:26.721Z,22.10
2019-03-06T12:13:57.573Z,19.90
2019-03-06T12:16:29.937Z,24.77
2019-03-06T12:19:00.664Z,23.70
2019-03-06T12:21:31.516Z,18.00
2019-03-06T12:24:04.410Z,22.03
2019-03-06T12:26:34.901Z,19.87
2019-03-06T12:29:05.575Z,17.47
2019-03-06T12:31:36.343Z,22.07
2019-03-06T12:34:07.054Z,20.63
2019-03-06T12:36:37.527Z,21.53
2019-03-06T12:39:30.881Z,21.27
2019-03-06T12:41:50.456Z,21.97
2019-03-06T12:44:23.281Z,22.13
2019-03-06T12:46:58.478Z,21.93
2019-03-06T12:49:34.789Z,19.90
2019-03-06T12:52:21.253Z,23.23
2019-03-06T12:55:04.536Z,17.33
2019-03-06T12:57:44.618Z,22.10
2019-03-06T13:00:19.358Z,18.70
2019-03-06T13:03:18.333Z,18.87
2019-03-06T13:05:54.118Z,17.90
2019-03-06T13:08:49.823Z,24.47
2019-03-06T13:11:13.991Z,21.83
2019-03-06T13:13:44.754Z,24.23
2019-03-06T13:16:31.072Z,20.67
2019-03-06T13:19:01.791Z,20.53
2019-03-06T13:21:32.621Z,22.07
2019-03-06T13:24:03.969Z,20.40
2019-03-06T13:26:35.030Z,25.03
2019-03-06T13:29:06.593Z,20.73
2019-03-06T13:31:37.826Z,20.30
2019-03-06T13:34:30.502Z,16.83
2019-03-06T13:37:01.521Z,18.87
2019-03-06T13:39:32.397Z,26.57
2019-03-06T13:42:03.560Z,18.50
2019-03-06T13:44:35.121Z,21.67
2019-03-06T13:47:05.941Z,21.70
2019-03-06T13:49:37.287Z,20.37
2019-03-06T13:52:08.020Z,19.90
2019-03-06T13:54:38.984Z,19.40
2019-03-06T13:57:11.179Z,20.30
2019-03-06T13:59:41.871Z,18.77
2019-03-06T14:02:12.805Z,19.57
2019-03-06T14:45:35.423Z,17.60
2019-03-06T14:48:06.132Z,20.63
2019-03-06T14:50:38.664Z,17.03
2019-03-06T14:53:09.416Z,20.20
2019-03-06T14:55:42.597Z,14.97
2019-03-06T14:58:14.840Z,15.30
2019-03-06T15:00:47.028Z,15.77
2019-03-06T15:03:17.437Z,17.93
2019-03-06T15:05:48.631Z,17.00
2019-03-06T15:08:22.096Z,20.90
2019-03-06T15:10:55.916Z,18.63
2019-03-06T15:13:26.227Z,20.43
2019-03-06T15:15:59.840Z,21.70
2019-03-06T15:18:30.601Z,28.30
2019-03-06T15:21:01.079Z,19.63
2019-03-06T15:23:31.640Z,14.43
2019-03-06T15:26:05.543Z,22.20
2019-03-06T15:28:37.720Z,18.00
2019-03-06T15:31:08.632Z,14.17
2019-03-06T15:33:39.087Z,18.90
2019-03-06T15:36:09.601Z,20.77
2019-03-06T15:38:41.679Z,17.77
2019-03-06T15:41:12.154Z,17.33
2019-03-06T15:43:42.666Z,17.47
2019-03-06T15:46:16.066Z,15.37
2019-03-06T15:48:46.404Z,13.23
2019-03-06T15:51:19.567Z,17.10
2019-03-06T15:53:53.116Z,18.70
2019-03-06T15:56:25.655Z,12.47
2019-03-06T15:58:57.192Z,15.70
2019-03-06T16:08:13.914Z,13.67
2019-03-06T16:10:49.447Z,14.80
2019-03-06T16:13:19.986Z,13.27
2019-03-06T16:15:50.613Z,19.27
2019-03-06T16:18:21.187Z,12.40
2019-03-06T16:20:51.648Z,15.77
2019-03-06T16:23:22.461Z,12.53
2019-03-06T16:25:52.887Z,15.47
2019-03-06T16:28:23.664Z,15.87
2019-03-06T16:30:54.127Z,16.93
2019-03-06T16:33:25.598Z,16.50
2019-03-06T16:35:56.445Z,16.83
2019-03-06T16:38:30.016Z,14.47
2019-03-06T16:41:00.512Z,16.80
2019-03-06T16:43:31.331Z,14.90
2019-03-06T16:46:01.707Z,16.80
2019-03-06T16:48:32.888Z,18.10
2019-03-06T16:51:03.651Z,15.33
2019-03-06T16:53:34.540Z,17.17
2019-03-06T16:56:06.281Z,14.57
2019-03-06T16:58:37.287Z,19.97
2019-03-06T17:01:08.582Z,22.80
2019-03-06T17:03:40.006Z,16.33
2019-03-06T17:06:12.289Z,15.40
2019-03-06T17:08:42.749Z,17.40
2019-03-06T17:11:13.450Z,18.07
2019-03-06T17:13:44.059Z,20.97
2019-03-06T17:16:14.639Z,18.63
2019-03-06T17:18:45.340Z,18.13
2019-03-06T17:21:15.801Z,22.40
2019-03-06T17:23:46.296Z,17.23
2019-03-06T17:26:16.889Z,20.87
2019-03-06T17:28:47.522Z,21.30
2019-03-06T17:31:19.122Z,15.47
2019-03-06T17:33:49.686Z,18.37
2019-03-06T17:36:19.997Z,13.17
2019-03-06T17:38:51.816Z,17.13
2019-03-06T17:41:22.280Z,15.20
2019-03-06T17:43:52.714Z,17.23
2019-03-06T17:46:23.230Z,8.97
2019-03-06T17:48:53.634Z,11.33
2019-03-06T17:51:24.183Z,8.57
2019-03-06T17:53:54.726Z,9.30
2019-03-06T17:56:25.480Z,16.73
2019-03-06T17:58:55.985Z,23.90
2019-03-06T18:01:27.392Z,15.80
2019-03-06T18:04:17.107Z,10.60
2019-03-06T18:06:47.769Z,11.97
2019-03-06T18:09:19.166Z,9.30
2019-03-06T18:11:49.665Z,7.03
2019-03-06T18:14:22.533Z,9.20
2019-03-06T18:16:53.296Z,9.77
2019-03-06T18:19:23.724Z,6.10
2019-03-06T18:21:54.340Z,8.03
2019-03-06T18:24:27.068Z,9.20
2019-03-06T18:26:57.963Z,7.23
2019-03-06T18:29:28.356Z,11.50
2019-03-06T18:31:58.698Z,5.10
2019-03-06T18:34:29.060Z,6.00
2019-03-06T18:36:59.552Z,6.80
2019-03-06T18:39:30.118Z,7.10
2019-03-06T18:42:00.486Z,6.37
2019-03-06T18:44:31.166Z,6.33
2019-03-06T18:47:01.477Z,3.60
2019-03-06T18:49:31.919Z,4.67
2019-03-06T18:52:02.267Z,6.13
2019-03-06T18:54:33.002Z,7.13
2019-03-06T18:57:03.673Z,5.90
2019-03-06T18:59:34.238Z,5.27
2019-03-06T19:02:04.856Z,4.87
2019-03-06T19:04:35.339Z,4.93
2019-03-06T19:07:05.882Z,4.87
2019-03-06T19:09:36.572Z,6.27
2019-03-06T19:12:07.054Z,9.87
2019-03-06T19:14:37.509Z,5.63
2019-03-06T19:17:10.664Z,4.17
2019-03-06T19:19:44.288Z,5.53
2019-03-06T19:22:14.595Z,2.90
2019-03-06T19:24:48.093Z,5.90
2019-03-06T19:27:18.499Z,5.70
2019-03-06T19:29:49.068Z,3.83
2019-03-06T19:32:19.481Z,7.43
2019-03-06T19:34:51.451Z,6.30
2019-03-06T19:37:21.856Z,5.90
2019-03-06T19:39:52.432Z,4.93
2019-03-06T19:42:24.320Z,5.63
2019-03-06T19:44:54.583Z,5.43
2019-03-06T19:47:26.224Z,5.37
2019-03-06T19:49:56.783Z,7.20
2019-03-06T19:52:27.264Z,4.37
2019-03-06T19:54:57.723Z,6.43
2019-03-06T19:57:28.291Z,9.20
2019-03-06T19:59:58.985Z,5.73
2019-03-06T20:05:25.779Z,5.53
2019-03-06T20:07:56.324Z,4.40
2019-03-06T20:10:26.998Z,4.03
2019-03-06T20:12:59.677Z,3.20
2019-03-06T20:15:30.112Z,5.03
2019-03-06T20:18:00.633Z,4.43
2019-03-06T20:20:31.191Z,4.57
2019-03-06T20:23:02.007Z,5.63
2019-03-06T20:25:32.407Z,5.60
2019-03-06T20:28:02.872Z,5.27
2019-03-06T20:30:33.610Z,4.83
2019-03-06T20:33:04.098Z,7.17
2019-03-06T20:35:34.726Z,4.23
2019-03-06T20:38:07.384Z,6.17
2019-03-06T20:40:37.908Z,5.37
2019-03-06T20:43:14.470Z,5.63
2019-03-06T20:45:47.812Z,6.63
2019-03-06T20:48:18.401Z,8.57
2019-03-06T20:50:48.785Z,11.93
2019-03-06T20:53:19.536Z,9.97
2019-03-06T20:55:49.903Z,9.97
2019-03-06T20:58:20.451Z,8.73
2019-03-06T21:00:50.847Z,9.37
2019-03-06T21:03:21.596Z,9.07
2019-03-06T21:05:51.983Z,11.10
2019-03-06T21:08:22.598Z,11.10
2019-03-06T21:10:53.031Z,12.37
2019-03-06T21:13:23.825Z,11.63
2019-03-06T21:15:54.203Z,12.73
2019-03-06T21:18:24.671Z,12.27
2019-03-06T21:20:55.202Z,16.00
2019-03-06T21:23:26.567Z,12.50
2019-03-06T21:25:57.274Z,15.60
2019-03-06T21:28:27.728Z,18.23
2019-03-06T21:31:00.207Z,18.43
2019-03-06T21:33:30.583Z,16.07
2019-03-06T21:36:01.310Z,16.33
2019-03-06T21:38:31.837Z,16.07
2019-03-06T21:41:05.191Z,16.80
2019-03-06T21:43:36.769Z,19.50
2019-03-06T21:46:07.208Z,19.40
2019-03-06T21:48:37.796Z,21.00
2019-03-06T21:51:08.184Z,18.33
2019-03-06T21:53:39.228Z,22.50
2019-03-06T21:56:11.578Z,23.90
2019-03-06T21:58:42.159Z,25.03
2019-03-06T22:01:13.825Z,23.73
2019-03-06T22:03:45.609Z,27.10
2019-03-06T22:06:17.742Z,22.77
2019-03-06T22:08:48.558Z,26.53
2019-03-06T22:11:19.199Z,26.37
2019-03-06T22:13:49.840Z,25.23
2019-03-06T22:16:20.246Z,23.93
2019-03-06T22:18:50.569Z,29.00
2019-03-06T22:21:22.019Z,25.80
2019-03-06T22:23:52.619Z,30.43
2019-03-06T22:26:23.266Z,29.83
2019-03-06T22:28:53.652Z,28.87
2019-03-06T22:31:24.316Z,29.17
2019-03-06T22:33:54.579Z,28.30
2019-03-06T22:36:25.535Z,30.93
2019-03-06T22:38:55.845Z,32.57
2019-03-06T22:41:26.995Z,33.27
2019-03-06T22:43:57.580Z,29.73
2019-03-06T22:46:28.041Z,31.60
2019-03-06T22:48:58.555Z,32.23
2019-03-06T22:51:29.052Z,31.97
2019-03-06T22:53:59.723Z,34.63
2019-03-06T22:56:30.963Z,32.97
2019-03-06T22:59:01.500Z,34.23
2019-03-06T23:01:34.367Z,31.03
2019-03-06T23:04:05.338Z,34.80
2019-03-06T23:06:36.195Z,37.53
2019-03-06T23:09:10.656Z,36.07
2019-03-06T23:11:42.015Z,32.77
2019-03-06T23:14:12.598Z,30.93
2019-03-06T23:16:42.905Z,32.43
2019-03-06T23:19:14.253Z,33.73
2019-03-06T23:21:44.671Z,30.17
2019-03-06T23:24:15.253Z,32.57
2019-03-06T23:26:46.276Z,31.97
2019-03-06T23:29:16.696Z,33.27
2019-03-06T23:31:50.435Z,30.27
2019-03-06T23:34:21.092Z,33.73
2019-03-06T23:36:51.791Z,31.30
2019-03-06T23:39:22.575Z,33.73
2019-03-06T23:41:53.673Z,31.30
2019-03-06T23:44:24.213Z,32.03
2019-03-06T23:46:54.914Z,33.13
2019-03-06T23:49:25.452Z,31.67
2019-03-06T23:52:00.355Z,33.07
2019-03-06T23:54:31.192Z,33.73
2019-03-06T23:57:01.871Z,33.83
2019-03-06T23:59:33.398Z,29.70
